createdAt,value
2023-04-01T00:01:24.291Z,18.10
2023-04-01T00:03:51.414Z,14.50
2023-04-01T00:06:20.178Z,17.90
2023-04-01T00:08:47.704Z,17.50
2023-04-01T00:11:16.391Z,18.20
2023-04-01T00:13:43.924Z,19.20
2023-04-01T00:16:20.931Z,18.40
2023-04-01T00:18:48.853Z,18.40
2023-04-01T00:21:17.082Z,17.20
2023-04-01T00:23:44.749Z,17.50
2023-04-01T00:26:13.531Z,15.80
2023-04-01T00:28:41.182Z,20.80
2023-04-01T00:31:10.128Z,18.40
2023-04-01T00:33:37.080Z,18.90
2023-04-01T00:36:09.496Z,22.40
2023-04-01T00:38:37.319Z,20.90
2023-04-01T00:41:04.741Z,16.40
2023-04-01T00:43:31.740Z,22.10
2023-04-01T00:45:58.937Z,23.50
2023-04-01T00:48:37.182Z,19.60
2023-04-01T00:51:09.178Z,16.60
2023-04-01T00:53:39.331Z,17.30
2023-04-01T00:56:12.734Z,16.70
2023-04-01T00:58:44.808Z,15.70
2023-04-01T01:01:12.344Z,16.50
2023-04-01T01:03:39.145Z,17.80
2023-04-01T01:06:26.968Z,18.00
2023-04-01T01:09:04.925Z,18.00
2023-04-01T01:12:06.053Z,18.70
2023-04-01T01:14:51.723Z,17.00
2023-04-01T01:17:34.864Z,16.10
2023-04-01T01:20:26.412Z,14.70
2023-04-01T01:22:56.952Z,16.30
2023-04-01T01:25:40.494Z,16.40
2023-04-01T01:28:27.691Z,18.10
2023-04-01T01:31:23.662Z,18.50
2023-04-01T01:34:31.486Z,15.00
2023-04-01T01:37:07.965Z,14.40
2023-04-01T01:39:37.949Z,16.10
2023-04-01T01:42:09.480Z,13.40
2023-04-01T01:44:39.199Z,15.20
2023-04-01T01:47:06.989Z,16.20
2023-04-01T01:49:36.654Z,18.40
2023-04-01T01:52:04.865Z,16.90
2023-04-01T01:54:31.777Z,16.10
2023-04-01T01:57:08.160Z,15.00
2023-04-01T01:59:39.614Z,16.30
2023-04-01T02:02:09.604Z,16.60
2023-04-01T02:04:40.560Z,17.40
2023-04-01T02:07:13.436Z,15.10
2023-04-01T02:09:40.454Z,15.20
2023-04-01T02:12:09.541Z,16.00
2023-04-01T02:14:54.983Z,17.60
2023-04-01T02:17:24.919Z,16.80
2023-04-01T02:20:00.346Z,15.90
2023-04-01T02:22:30.764Z,15.50
2023-04-01T02:25:07.712Z,13.50
2023-04-01T02:27:34.741Z,15.40
2023-04-01T02:30:01.683Z,16.20
2023-04-01T02:32:30.670Z,15.10
2023-04-01T02:34:57.584Z,14.70
2023-04-01T02:37:24.329Z,15.50
2023-04-01T02:39:51.277Z,16.40
2023-04-01T02:42:17.965Z,17.10
2023-04-01T02:44:44.643Z,18.40
2023-04-01T02:47:11.318Z,20.50
2023-04-01T02:49:38.058Z,15.10
2023-04-01T02:52:05.047Z,15.10
2023-04-01T02:54:31.732Z,16.00
2023-04-01T02:56:58.506Z,17.00
2023-04-01T02:59:25.300Z,17.60
2023-04-01T03:01:51.989Z,18.20
2023-04-01T03:04:18.615Z,14.60
2023-04-01T03:06:45.399Z,14.90
2023-04-01T03:09:12.521Z,12.70
2023-04-01T03:11:39.192Z,15.20
2023-04-01T03:14:06.010Z,14.40
2023-04-01T03:16:32.701Z,19.20
2023-04-01T03:19:00.878Z,21.60
2023-04-01T03:21:28.025Z,19.00
2023-04-01T03:23:54.818Z,15.80
2023-04-01T03:26:22.698Z,14.80
2023-04-01T03:28:49.717Z,17.40
2023-04-01T03:31:17.306Z,16.50
2023-04-01T03:33:48.422Z,19.00
2023-04-01T03:36:15.312Z,14.40
2023-04-01T03:38:43.295Z,16.30
2023-04-01T03:41:17.002Z,15.20
2023-04-01T03:43:45.442Z,16.10
2023-04-01T03:46:12.700Z,13.00
2023-04-01T03:48:39.588Z,16.30
2023-04-01T03:51:09.406Z,15.00
2023-04-01T03:53:36.586Z,15.10
2023-04-01T03:56:09.249Z,16.60
2023-04-01T03:58:36.419Z,19.10
2023-04-01T04:01:03.538Z,14.60
2023-04-01T04:03:31.141Z,18.70
2023-04-01T04:05:58.323Z,16.40
2023-04-01T04:08:24.995Z,16.40
2023-04-01T04:10:58.032Z,16.60
2023-04-01T04:13:25.387Z,15.90
2023-04-01T04:15:57.420Z,17.80
2023-04-01T04:18:24.088Z,15.40
2023-04-01T04:20:52.219Z,13.60
2023-04-01T04:23:20.003Z,17.00
2023-04-01T04:26:04.877Z,19.40
2023-04-01T04:28:32.415Z,20.90
2023-04-01T04:30:59.825Z,20.00
2023-04-01T04:33:28.438Z,23.20
2023-04-01T04:35:59.793Z,21.50
2023-04-01T04:38:27.670Z,20.90
2023-04-01T04:40:55.404Z,19.40
2023-04-01T04:43:22.340Z,22.80
2023-04-01T04:45:49.146Z,19.00
2023-04-01T04:48:19.950Z,16.00
2023-04-01T04:50:49.798Z,16.00
2023-04-01T04:53:18.720Z,16.00
2023-04-01T04:55:47.992Z,15.90
2023-04-01T04:58:24.667Z,15.00
2023-04-01T05:00:51.547Z,15.50
2023-04-01T05:03:22.895Z,14.90
2023-04-01T05:05:53.160Z,18.70
2023-04-01T05:08:20.474Z,18.10
2023-04-01T05:10:47.385Z,15.30
2023-04-01T05:13:14.003Z,14.40
2023-04-01T05:15:41.518Z,15.30
2023-04-01T05:18:08.333Z,14.00
2023-04-01T05:20:35.180Z,19.40
2023-04-01T05:23:02.455Z,15.20
2023-04-01T05:25:29.694Z,13.20
2023-04-01T05:27:56.626Z,13.80
2023-04-01T05:30:23.863Z,11.80
2023-04-01T05:33:29.887Z,17.30
2023-04-01T05:35:57.198Z,13.80
2023-04-01T05:38:23.934Z,22.10
2023-04-01T05:40:50.642Z,11.60
2023-04-01T05:43:17.833Z,12.20
2023-04-01T05:45:46.266Z,12.00
2023-04-01T05:48:13.049Z,11.80
2023-04-01T05:50:42.310Z,13.90
2023-04-01T05:53:09.796Z,13.20
2023-04-01T05:55:37.463Z,12.80
2023-04-01T05:58:04.547Z,9.60
2023-04-01T06:00:31.870Z,8.70
2023-04-01T06:03:01.732Z,10.90
2023-04-01T06:05:31.314Z,10.20
2023-04-01T06:08:19.786Z,10.60
2023-04-01T06:11:29.179Z,13.80
2023-04-01T06:14:17.733Z,9.30
2023-04-01T06:17:11.615Z,11.10
2023-04-01T06:19:56.373Z,15.80
2023-04-01T06:22:44.401Z,18.60
2023-04-01T06:25:34.012Z,17.10
2023-04-01T06:28:52.598Z,16.60
2023-04-01T06:31:35.443Z,17.40
2023-04-01T06:34:37.773Z,16.80
2023-04-01T06:37:17.945Z,15.30
2023-04-01T06:40:22.829Z,14.80
2023-04-01T06:43:27.006Z,18.60
2023-04-01T06:46:39.828Z,15.40
2023-04-01T06:49:38.567Z,13.20
2023-04-01T06:52:47.742Z,16.10
2023-04-01T06:55:47.182Z,18.30
2023-04-01T06:58:28.352Z,15.20
2023-04-01T07:00:59.387Z,13.30
2023-04-01T07:03:36.994Z,12.20
2023-04-01T07:06:10.263Z,13.80
2023-04-01T07:08:43.113Z,14.80
2023-04-01T07:11:15.341Z,16.80
2023-04-01T07:14:17.297Z,14.70
2023-04-01T07:16:57.260Z,14.90
2023-04-01T07:19:43.466Z,15.80
2023-04-01T07:22:36.999Z,17.00
2023-04-01T07:25:17.789Z,17.60
2023-04-01T07:27:48.420Z,22.20
2023-04-01T07:30:17.754Z,25.40
2023-04-01T07:33:05.078Z,27.10
2023-04-01T07:35:35.822Z,29.60
2023-04-01T07:38:27.928Z,22.40
2023-04-01T07:41:13.579Z,23.30
2023-04-01T07:44:02.972Z,24.60
2023-04-01T07:46:46.537Z,32.70
2023-04-01T07:49:22.212Z,29.90
2023-04-01T07:52:01.172Z,27.70
2023-04-01T07:54:56.472Z,27.60
2023-04-01T07:57:32.064Z,28.80
2023-04-01T08:00:09.337Z,27.00
2023-04-01T08:03:02.479Z,29.70
2023-04-01T08:05:38.774Z,33.90
2023-04-01T08:08:24.490Z,33.10
2023-04-01T08:11:31.481Z,35.90
2023-04-01T08:14:31.382Z,36.20
2023-04-01T08:18:02.641Z,24.80
2023-04-01T08:20:51.525Z,33.70
2023-04-01T08:23:23.769Z,35.40
2023-04-01T08:25:58.940Z,31.40
2023-04-01T08:28:35.722Z,33.10
2023-04-01T08:31:28.674Z,37.20
2023-04-01T08:33:56.628Z,36.60
2023-04-01T08:36:30.622Z,37.40
2023-04-01T08:39:16.576Z,35.00
2023-04-01T08:41:52.993Z,32.20
2023-04-01T08:45:01.534Z,35.10
2023-04-01T08:48:11.921Z,36.60
2023-04-01T08:51:23.982Z,39.60
2023-04-01T08:54:08.313Z,40.60
2023-04-01T08:56:56.944Z,33.10
2023-04-01T08:59:50.832Z,35.60
2023-04-01T09:03:15.259Z,37.70
2023-04-01T09:06:16.504Z,34.50
2023-04-01T09:09:22.275Z,30.10
2023-04-01T09:12:09.498Z,30.20
2023-04-01T09:15:17.065Z,30.70
2023-04-01T09:18:03.595Z,24.90
2023-04-01T09:20:51.657Z,28.70
2023-04-01T09:23:35.118Z,26.90
2023-04-01T09:26:16.929Z,29.60
2023-04-01T09:29:02.404Z,27.60
2023-04-01T09:32:03.386Z,24.80
2023-04-01T09:35:04.250Z,30.40
2023-04-01T09:37:49.212Z,29.30
2023-04-01T09:40:45.365Z,26.60
2023-04-01T09:43:47.459Z,23.10
2023-04-01T09:46:33.635Z,21.30
2023-04-01T09:49:03.483Z,23.10
2023-04-01T09:51:55.854Z,18.50
2023-04-01T09:54:25.750Z,24.00
2023-04-01T09:57:06.495Z,17.60
2023-04-01T10:00:01.738Z,24.50
2023-04-01T10:02:48.522Z,25.80
2023-04-01T10:05:42.432Z,22.40
2023-04-01T10:08:53.085Z,18.90
2023-04-01T10:11:58.354Z,19.80
2023-04-01T10:14:37.627Z,23.20
2023-04-01T10:17:21.805Z,21.10
2023-04-01T10:20:13.615Z,23.00
2023-04-01T10:22:46.983Z,20.20
2023-04-01T10:25:32.166Z,19.10
2023-04-01T10:28:31.790Z,19.60
2023-04-01T10:31:42.357Z,24.70
2023-04-01T10:34:33.855Z,20.00
2023-04-01T10:37:38.792Z,22.90
2023-04-01T10:40:37.373Z,21.10
2023-04-01T10:44:07.211Z,19.80
2023-04-01T10:46:49.516Z,21.60
2023-04-01T10:49:19.665Z,19.60
2023-04-01T10:52:13.295Z,18.80
2023-04-01T10:55:37.716Z,19.50
2023-04-01T10:59:05.208Z,21.00
2023-04-01T11:02:23.948Z,17.30
2023-04-01T11:05:21.452Z,18.10
2023-04-01T11:08:38.432Z,16.60
2023-04-01T11:11:20.272Z,15.30
2023-04-01T11:14:28.552Z,17.30
2023-04-01T11:17:04.249Z,16.90
2023-04-01T11:19:50.295Z,17.40
2023-04-01T11:22:50.052Z,14.30
2023-04-01T11:25:45.324Z,14.20
2023-04-01T11:28:56.176Z,15.20
2023-04-01T11:31:41.735Z,14.10
2023-04-01T11:34:27.465Z,18.10
2023-04-01T11:37:25.437Z,11.70
2023-04-01T11:40:49.572Z,12.80
2023-04-01T11:44:22.633Z,11.80
2023-04-01T11:47:57.509Z,10.00
2023-04-01T11:50:49.010Z,8.20
2023-04-01T11:53:34.706Z,10.10
2023-04-01T11:56:19.683Z,8.90
2023-04-01T11:58:58.609Z,10.50
2023-04-01T12:01:28.081Z,10.90
2023-04-01T12:04:10.150Z,8.70
2023-04-01T12:06:47.254Z,9.00
2023-04-01T12:09:26.170Z,9.50
2023-04-01T12:12:11.990Z,6.70
2023-04-01T12:15:00.748Z,6.20
2023-04-01T12:17:58.673Z,7.30
2023-04-01T12:20:37.346Z,6.00
2023-04-01T12:23:22.256Z,7.70
2023-04-01T12:26:17.418Z,6.60
2023-04-01T12:29:41.499Z,6.40
2023-04-01T12:32:26.160Z,5.30
2023-04-01T12:35:07.962Z,6.00
2023-04-01T12:37:49.248Z,2.70
2023-04-01T12:40:43.697Z,2.90
2023-04-01T12:43:35.237Z,3.10
2023-04-01T12:46:11.427Z,3.20
2023-04-01T12:48:57.939Z,4.00
2023-04-01T12:51:37.265Z,3.10
2023-04-01T12:54:13.994Z,3.50
2023-04-01T12:56:55.628Z,3.10
2023-04-01T12:59:40.371Z,5.00
2023-04-01T13:02:48.630Z,3.80
2023-04-01T13:05:26.259Z,3.20
2023-04-01T13:08:17.802Z,3.80
2023-04-01T13:11:03.642Z,4.80
2023-04-01T13:13:45.826Z,4.10
2023-04-01T13:16:24.206Z,3.20
2023-04-01T13:18:56.974Z,2.90
2023-04-01T13:21:34.018Z,3.40
2023-04-01T13:24:22.333Z,2.20
2023-04-01T13:26:51.927Z,1.80
2023-04-01T13:29:26.952Z,1.50
2023-04-01T13:35:42.682Z,0.70
2023-04-01T13:38:25.921Z,1.60
2023-04-01T13:41:12.340Z,3.50
2023-04-01T13:43:46.183Z,1.50
2023-04-01T13:46:22.283Z,3.50
2023-04-01T13:48:58.759Z,1.20
2023-04-01T13:51:37.537Z,1.00
2023-04-01T13:54:21.771Z,3.70
2023-04-01T13:57:20.271Z,1.20
2023-04-01T14:00:08.260Z,2.00
2023-04-01T14:03:03.008Z,2.00
2023-04-01T14:05:45.451Z,3.10
2023-04-01T14:08:37.870Z,3.90
2023-04-01T14:11:07.653Z,2.40
2023-04-01T14:14:14.233Z,2.70
2023-04-01T14:17:08.134Z,3.90
2023-04-01T14:20:19.324Z,2.60
2023-04-01T14:22:51.974Z,3.40
2023-04-01T14:25:31.210Z,2.30
2023-04-01T14:28:43.423Z,2.60
2023-04-01T14:31:28.136Z,2.30
2023-04-01T14:34:17.021Z,2.10
2023-04-01T14:36:59.634Z,2.20
2023-04-01T14:39:53.820Z,2.90
2023-04-01T14:42:29.601Z,2.20
2023-04-01T14:45:19.037Z,3.10
2023-04-01T14:48:28.630Z,2.90
2023-04-01T14:51:03.048Z,5.20
2023-04-01T14:53:36.123Z,5.10
2023-04-01T14:56:04.065Z,2.90
2023-04-01T14:58:58.396Z,3.60
2023-04-01T15:01:59.733Z,3.00
2023-04-01T15:04:45.235Z,3.30
2023-04-01T15:07:36.498Z,2.60
2023-04-01T15:10:10.681Z,2.60
2023-04-01T15:13:00.806Z,3.00
2023-04-01T15:15:58.188Z,3.10
2023-04-01T15:19:03.329Z,3.70
2023-04-01T15:22:05.320Z,2.90
2023-04-01T15:25:14.584Z,3.20
2023-04-01T15:28:07.504Z,3.60
2023-04-01T15:30:38.940Z,2.70
2023-04-01T15:33:11.953Z,2.10
2023-04-01T15:36:07.711Z,3.50
2023-04-01T15:38:46.704Z,3.10
2023-04-01T15:41:23.320Z,2.00
2023-04-01T15:43:54.875Z,1.40
2023-04-01T15:46:50.097Z,1.30
2023-04-01T15:49:24.313Z,1.50
2023-04-01T15:52:28.881Z,1.20
2023-04-01T15:55:14.539Z,3.00
2023-04-01T15:57:53.615Z,2.30
2023-04-01T16:00:30.776Z,2.20
2023-04-01T16:03:22.485Z,1.60
2023-04-01T16:05:55.145Z,1.10
2023-04-01T16:08:43.545Z,1.40
2023-04-01T16:11:27.197Z,1.30
2023-04-01T16:14:12.487Z,2.30
2023-04-01T16:16:55.007Z,1.30
2023-04-01T16:19:34.054Z,1.80
2023-04-01T16:22:23.702Z,0.90
2023-04-01T16:24:59.426Z,0.70
2023-04-01T16:27:30.637Z,0.90
2023-04-01T16:30:04.581Z,0.80
2023-04-01T16:32:42.398Z,1.90
2023-04-01T16:35:24.253Z,0.90
2023-04-01T16:37:57.078Z,1.50
2023-04-01T16:40:45.401Z,0.80
2023-04-01T16:43:43.542Z,1.60
2023-04-01T16:46:41.500Z,1.00
2023-04-01T16:49:14.221Z,1.20
2023-04-01T16:51:57.423Z,0.90
2023-04-01T16:54:32.378Z,3.00
2023-04-01T16:57:11.754Z,1.10
2023-04-01T17:00:01.995Z,1.30
2023-04-01T17:02:51.205Z,1.30
2023-04-01T17:05:18.219Z,2.40
2023-04-01T17:08:02.676Z,1.20
2023-04-01T17:11:01.410Z,2.40
2023-04-01T17:13:41.849Z,1.40
2023-04-01T17:16:23.541Z,1.00
2023-04-01T17:19:22.085Z,1.10
2023-04-01T17:21:56.960Z,1.30
2023-04-01T17:24:26.597Z,1.90
2023-04-01T17:27:02.653Z,2.10
2023-04-01T17:30:03.348Z,4.80
2023-04-01T17:33:03.685Z,1.70
2023-04-01T17:35:44.102Z,1.80
2023-04-01T17:38:54.709Z,3.30
2023-04-01T17:41:27.978Z,1.40
2023-04-01T17:44:10.359Z,2.60
2023-04-01T17:46:43.868Z,2.90
2023-04-01T17:49:32.351Z,3.20
2023-04-01T17:52:20.935Z,3.00
2023-04-01T17:55:11.283Z,6.70
2023-04-01T17:57:48.208Z,8.70
2023-04-01T18:00:50.665Z,7.00
2023-04-01T18:03:29.032Z,4.90
2023-04-01T18:05:58.825Z,4.10
2023-04-01T18:08:47.188Z,4.70
2023-04-01T18:11:26.644Z,3.30
2023-04-01T18:14:18.399Z,3.40
2023-04-01T18:17:05.779Z,3.90
2023-04-01T18:20:03.049Z,3.70
2023-04-01T18:22:54.990Z,2.50
2023-04-01T18:25:39.204Z,2.60
2023-04-01T18:28:31.539Z,3.80
2023-04-01T18:31:07.100Z,4.00
2023-04-01T18:33:58.573Z,3.10
2023-04-01T18:36:45.670Z,5.10
2023-04-01T18:39:25.968Z,3.20
2023-04-01T18:42:14.793Z,5.80
2023-04-01T18:44:51.360Z,4.10
2023-04-01T18:47:39.534Z,2.70
2023-04-01T18:50:27.466Z,4.20
2023-04-01T18:53:16.919Z,6.60
2023-04-01T18:55:55.584Z,5.30
2023-04-01T18:58:32.285Z,3.10
2023-04-01T19:01:26.832Z,3.70
2023-04-01T19:04:12.131Z,5.00
2023-04-01T19:06:51.659Z,4.00
2023-04-01T19:09:33.092Z,2.90
2023-04-01T19:12:14.809Z,5.60
2023-04-01T19:15:09.512Z,3.80
2023-04-01T19:18:07.285Z,3.40
2023-04-01T19:20:47.235Z,2.70
2023-04-01T19:23:36.213Z,3.80
2023-04-01T19:26:07.646Z,2.80
2023-04-01T19:28:37.357Z,4.60
2023-04-01T19:31:31.581Z,3.50
2023-04-01T19:34:21.775Z,5.40
2023-04-01T19:37:06.019Z,5.20
2023-04-01T19:39:48.456Z,4.50
2023-04-01T19:42:42.951Z,4.10
2023-04-01T19:45:37.490Z,3.50
2023-04-01T19:48:33.612Z,2.80
2023-04-01T19:51:04.350Z,3.60
2023-04-01T19:53:46.243Z,3.50
2023-04-01T19:56:22.832Z,5.70
2023-04-01T19:58:53.587Z,5.00
2023-04-01T20:01:44.694Z,4.10
2023-04-01T20:04:23.752Z,4.20
2023-04-01T20:07:28.104Z,5.10
2023-04-01T20:10:04.191Z,4.10
2023-04-01T20:12:37.273Z,4.70
2023-04-01T20:15:26.701Z,4.40
2023-04-01T20:17:56.542Z,7.20
2023-04-01T20:20:28.181Z,4.50
2023-04-01T20:23:29.847Z,4.10
2023-04-01T20:26:11.444Z,6.60
2023-04-01T20:28:46.486Z,4.80
2023-04-01T20:31:27.463Z,6.80
2023-04-01T20:34:23.997Z,6.20
2023-04-01T20:42:54.458Z,5.50
2023-04-01T20:46:09.111Z,4.40
2023-04-01T20:48:48.402Z,9.80
2023-04-01T20:51:19.271Z,16.90
2023-04-01T20:54:23.115Z,20.60
2023-04-01T20:57:06.888Z,18.70
2023-04-01T20:59:58.680Z,19.80
2023-04-01T21:02:44.157Z,19.60
2023-04-01T21:05:29.635Z,24.00
2023-04-01T21:08:25.553Z,18.40
2023-04-01T21:11:01.395Z,23.00
2023-04-01T21:13:47.579Z,21.30
2023-04-01T21:16:39.003Z,20.60
2023-04-01T21:19:14.660Z,20.40
2023-04-01T21:22:14.770Z,24.80
2023-04-01T21:24:56.548Z,21.10
2023-04-01T21:27:35.199Z,23.40
2023-04-01T21:30:31.045Z,22.20
2023-04-01T21:33:09.750Z,24.10
2023-04-01T21:36:04.609Z,23.90
2023-04-01T21:38:56.293Z,25.10
2023-04-01T21:41:41.920Z,20.40
2023-04-01T21:44:39.767Z,25.70
2023-04-01T21:47:37.372Z,28.60
2023-04-01T21:50:20.927Z,25.70
2023-04-01T21:53:06.484Z,14.80
2023-04-01T21:56:11.261Z,27.20
2023-04-01T21:59:18.991Z,29.50
2023-04-01T22:02:12.506Z,24.60
2023-04-01T22:04:42.148Z,26.20
2023-04-01T22:07:15.917Z,15.40
2023-04-01T22:10:22.528Z,21.30
2023-04-01T22:13:17.870Z,23.50
2023-04-01T22:16:10.780Z,20.80
2023-04-01T22:18:44.958Z,23.80
2023-04-01T22:21:53.151Z,18.20
2023-04-01T22:24:42.718Z,19.70
2023-04-01T22:27:31.961Z,21.30
2023-04-01T22:30:35.079Z,25.10
2023-04-01T22:33:19.682Z,19.40
2023-04-01T22:35:52.405Z,19.80
2023-04-01T22:38:47.124Z,26.30
2023-04-01T22:41:20.172Z,21.90
2023-04-01T22:43:48.864Z,18.90
2023-04-01T22:46:44.890Z,19.50
2023-04-01T22:49:29.671Z,19.10
2023-04-01T22:52:12.832Z,17.50
2023-04-01T22:54:47.917Z,19.40
2023-04-01T22:57:42.974Z,14.70
2023-04-01T23:00:21.196Z,16.60
2023-04-01T23:03:10.002Z,15.30
2023-04-01T23:05:43.904Z,17.00
2023-04-01T23:08:32.514Z,14.20
2023-04-01T23:11:05.184Z,14.60
2023-04-01T23:13:49.384Z,13.30
2023-04-01T23:16:18.288Z,16.60
2023-04-01T23:18:58.371Z,13.00
2023-04-01T23:21:31.919Z,17.70
2023-04-01T23:24:19.129Z,16.90
2023-04-01T23:26:48.857Z,16.60
2023-04-01T23:29:18.708Z,18.20
2023-04-01T23:31:58.411Z,15.40
2023-04-01T23:34:49.930Z,19.80
2023-04-01T23:37:19.764Z,19.40
2023-04-01T23:39:50.074Z,19.70
2023-04-01T23:42:20.950Z,15.00
2023-04-01T23:44:50.763Z,18.20
2023-04-01T23:47:22.241Z,19.70
2023-04-01T23:49:56.401Z,22.10
2023-04-01T23:52:36.021Z,18.50
2023-04-01T23:55:18.081Z,18.50
2023-04-01T23:58:07.440Z,21.60
